To NAV CANADA Home Page Login to a new session Search on AWWS site Feedback and Comments Disclaimer Vers la page française équivalente Tips FAQ What's new on the site To the Forecasts and Observations / NOTAM section To "File a Flight Plan" website Publications and other links Update of the User's profile FIC Telephone Numbers My Weather Data Folder Route Weather Data Regional Weather Data Local Weather Data To the Forecasts and Observations / NOTAM section
Request Generated 10/17/2017 at 01:56:55 UTC . Weather information available at that time is displayed.

METAR/TAF

MAYO/YT    

METAR CYMA 170100Z 00000KT 20SM FEW030 FEW070 OVC120 M02/M05 A2949
RMK SC1AC1AC7 AC TR SLP023=
METAR CYMA 170000Z CCA 00000KT 20SM FEW030 FEW055 BKN120 M01/M06
A2949 RMK SC1SC1AC6 SC TR CLIMAT -6.1/-1.0/TRCM/TRMWE SOG 1 SLP022=
METAR CYMA 170000Z 00000KT 20SM FEW030 FEW055 BKN120 M01/M06 A2949
RMK SC1SC1AC6 SC TR CLIMAT -6.1/-1.0/TRCM/TRMWE SLP022=
METAR CYMA 162300Z 00000KT 20SM FEW025 SCT055 BKN110 M02/M07 A2949
RMK SC1SC2AC4 SLP024=

TAF CYMA 162341Z 1700/1712 VRB03KT P6SM FEW020 SCT050 BKN100 TEMPO
1700/1712 2SM -SHSN SCT020 OVC050
RMK NXT FCST BY 170600Z=
Your time UTC time
Weather data provided by Environment Canada and NAV CANADA